Time;durP1;ratioP1;P1;durP2;ratioP2;P2;SDS_P1;SDS_P2;PMS_P1;PMS_P2;Temp;Humidity;BMP_temperature;BMP_pressure;BME280_temperature;BME280_humidity;BME280_pressure;Samples;Min_cycle;Max_cycle;Signal;HPM_P1;HPM_P2
2023/06/12 00:02:24;;;;;;;5.00;3.78;;;18.00;99.50;;;;;;5014268;28;20294;-57
2023/06/12 00:04:54;;;;;;;6.05;3.25;;;17.90;99.50;;;;;;5014144;28;20223;-57
2023/06/12 00:07:21;;;;;;;3.78;3.47;;;17.80;99.70;;;;;;5013608;28;20207;-57
2023/06/12 00:09:48;;;;;;;5.45;3.65;;;17.70;99.90;;;;;;5014182;28;20235;-57
2023/06/12 00:12:15;;;;;;;7.00;3.60;;;17.70;99.90;;;;;;5013797;28;20209;-60
2023/06/12 00:14:42;;;;;;;4.03;3.63;;;17.70;99.90;;;;;;5013934;28;20207;-57
2023/06/12 00:17:10;;;;;;;4.03;3.63;;;17.70;99.90;;;;;;5013513;28;20218;-56
2023/06/12 00:19:37;;;;;;;3.60;3.30;;;17.70;99.90;;;;;;5013401;28;20241;-56
2023/06/12 00:22:04;;;;;;;5.43;3.85;;;17.70;99.90;;;;;;5013788;28;20222;-56
2023/06/12 00:24:31;;;;;;;3.60;3.30;;;17.70;99.90;;;;;;5013841;28;20210;-56
2023/06/12 00:26:58;;;;;;;5.72;3.50;;;17.70;99.90;;;;;;5013490;28;20214;-57
2023/06/12 00:29:24;;;;;;;4.72;3.22;;;17.80;99.90;;;;;;5013307;28;20581;-55
2023/06/12 00:31:51;;;;;;;5.00;3.58;;;17.80;99.90;;;;;;5013628;28;20206;-55
2023/06/12 00:34:20;;;;;;;4.07;3.63;;;17.80;99.90;;;;;;5013272;28;20203;-57
2023/06/12 00:36:48;;;;;;;3.90;3.53;;;17.80;99.90;;;;;;5013086;28;20585;-56
2023/06/12 00:39:15;;;;;;;3.97;3.42;;;17.90;99.90;;;;;;5013375;28;20317;-56
2023/06/12 00:41:41;;;;;;;4.22;3.83;;;17.90;99.90;;;;;;5012246;28;20227;-59
2023/06/12 00:44:08;;;;;;;3.78;3.35;;;17.80;99.90;;;;;;5013281;28;20210;-57
2023/06/12 00:46:35;;;;;;;5.03;3.30;;;17.70;99.90;;;;;;5012989;28;20222;-56
2023/06/12 00:49:03;;;;;;;4.88;3.63;;;17.60;99.90;;;;;;5013307;28;20234;-59
2023/06/12 00:51:32;;;;;;;4.55;3.63;;;17.50;99.90;;;;;;5013272;28;20209;-57
2023/06/12 00:54:00;;;;;;;3.58;3.28;;;17.40;99.90;;;;;;5013467;28;20613;-56
2023/06/12 00:56:27;;;;;;;4.70;4.10;;;17.40;99.90;;;;;;5012904;28;20595;-57
2023/06/12 00:58:55;;;;;;;3.97;3.58;;;17.40;99.90;;;;;;5013086;28;20235;-59
2023/06/12 01:01:25;;;;;;;4.68;3.90;;;17.50;99.90;;;;;;5012805;28;20227;-56
2023/06/12 01:03:56;;;;;;;4.25;3.80;;;17.50;99.90;;;;;;5013140;28;20215;-58
2023/06/12 01:06:33;;;;;;;4.15;3.75;;;17.40;99.90;;;;;;5012898;28;20223;-56
2023/06/12 01:09:09;;;;;;;3.83;3.53;;;17.40;99.90;;;;;;5012996;28;20235;-55
2023/06/12 01:11:37;;;;;;;5.32;3.40;;;17.30;99.90;;;;;;5013146;28;20681;-58
2023/06/12 01:14:04;;;;;;;6.93;3.45;;;17.20;99.90;;;;;;5012884;28;20202;-56
2023/06/12 01:16:31;;;;;;;5.65;3.80;;;17.10;99.90;;;;;;5012932;28;20217;-59
2023/06/12 01:19:00;;;;;;;6.03;3.83;;;17.00;99.90;;;;;;5056233;23;20671;-60
2023/06/12 01:21:32;;;;;;;5.38;4.07;;;16.90;99.90;;;;;;5084859;28;20261;-59
2023/06/12 01:24:30;;;;;;;3.60;3.30;;;16.90;99.90;;;;;;5096107;28;20204;-58
2023/06/12 01:27:27;;;;;;;3.75;3.35;;;17.00;99.90;;;;;;5092507;28;20211;-58
2023/06/12 01:30:18;;;;;;;4.32;3.55;;;16.90;99.90;;;;;;5094819;28;20293;-59
2023/06/12 01:32:50;;;;;;;5.00;3.78;;;16.90;99.90;;;;;;5095096;28;20208;-58
2023/06/12 01:35:22;;;;;;;6.55;3.95;;;16.80;99.90;;;;;;5095545;28;20222;-59
2023/06/12 01:37:52;;;;;;;4.15;3.75;;;16.70;99.90;;;;;;5095371;28;20208;-59
2023/06/12 01:40:20;;;;;;;4.43;3.60;;;16.60;99.90;;;;;;5094724;28;20228;-58
2023/06/12 01:42:47;;;;;;;3.90;3.50;;;16.60;99.90;;;;;;5093890;28;20294;-60
2023/06/12 01:45:14;;;;;;;5.07;3.80;;;16.50;99.90;;;;;;5094333;28;20231;-59
2023/06/12 01:47:41;;;;;;;3.90;3.53;;;16.50;99.90;;;;;;5094072;28;20297;-59
2023/06/12 01:50:12;;;;;;;3.88;3.58;;;16.40;99.90;;;;;;5094160;28;20220;-59
2023/06/12 01:52:40;;;;;;;7.35;3.70;;;16.40;99.90;;;;;;5093010;28;20637;-59
2023/06/12 01:55:08;;;;;;;4.82;3.80;;;16.50;99.90;;;;;;5093485;28;20204;-60
2023/06/12 01:57:38;;;;;;;4.97;3.67;;;16.50;99.90;;;;;;5092595;28;20204;-59
2023/06/12 02:00:06;;;;;;;5.80;4.20;;;16.50;99.90;;;;;;5092519;28;20256;-59
2023/06/12 02:02:33;;;;;;;4.28;3.67;;;16.50;99.90;;;;;;5092620;28;20223;-60
2023/06/12 02:05:00;;;;;;;5.60;3.92;;;16.50;99.90;;;;;;5092537;28;20281;-60
2023/06/12 02:07:28;;;;;;;4.28;3.88;;;16.50;99.90;;;;;;5092604;28;20204;-59
2023/06/12 02:09:55;;;;;;;5.50;4.00;;;16.50;99.90;;;;;;5092580;28;20642;-59
2023/06/12 02:12:22;;;;;;;3.97;3.60;;;16.60;99.90;;;;;;5092799;28;20200;-60
2023/06/12 02:14:50;;;;;;;5.15;3.67;;;16.60;99.90;;;;;;5092410;28;20200;-59
2023/06/12 02:17:19;;;;;;;4.47;3.83;;;16.60;99.90;;;;;;5092216;28;20199;-59
2023/06/12 02:19:47;;;;;;;4.05;3.67;;;16.50;99.90;;;;;;5092230;28;20327;-59
2023/06/12 02:22:14;;;;;;;5.32;4.00;;;16.50;99.90;;;;;;5092151;28;20231;-59
2023/06/12 02:24:42;;;;;;;4.45;4.05;;;16.50;99.90;;;;;;5092324;28;20575;-59
2023/06/12 02:27:10;;;;;;;3.92;3.53;;;16.50;99.90;;;;;;5092149;28;20578;-60
2023/06/12 02:29:37;;;;;;;4.45;3.80;;;16.50;99.90;;;;;;5092441;28;20227;-59
2023/06/12 02:32:04;;;;;;;4.30;3.90;;;16.50;99.90;;;;;;5091550;28;20580;-58
2023/06/12 02:34:30;;;;;;;4.40;4.00;;;16.50;99.90;;;;;;5092292;28;20212;-59
2023/06/12 02:36:58;;;;;;;5.60;4.30;;;16.60;99.90;;;;;;5092270;28;20216;-58
2023/06/12 02:39:25;;;;;;;4.82;4.10;;;16.50;99.90;;;;;;5092164;28;20277;-58
2023/06/12 02:41:53;;;;;;;4.68;3.95;;;16.60;99.90;;;;;;5092359;28;20225;-58
2023/06/12 02:44:19;;;;;;;4.55;3.70;;;16.60;99.90;;;;;;5092665;28;20590;-58
2023/06/12 02:46:54;;;;;;;4.45;3.78;;;16.60;99.90;;;;;;5092806;28;20230;-59
2023/06/12 02:49:22;;;;;;;4.45;4.05;;;16.60;99.90;;;;;;5092957;28;20230;-59
2023/06/12 02:51:49;;;;;;;5.20;4.18;;;16.60;99.90;;;;;;5092796;28;20551;-58
2023/06/12 02:54:17;;;;;;;4.25;3.85;;;16.70;99.90;;;;;;5093602;28;20204;-59
2023/06/12 02:56:45;;;;;;;5.35;3.85;;;16.70;99.90;;;;;;5093217;28;20700;-59
2023/06/12 02:59:13;;;;;;;4.40;4.00;;;16.70;99.90;;;;;;5094064;28;20228;-59
2023/06/12 03:01:43;;;;;;;4.82;3.97;;;16.70;99.90;;;;;;5094386;28;20228;-58
2023/06/12 03:04:10;;;;;;;6.50;3.92;;;16.70;99.90;;;;;;5094498;28;20214;-59
2023/06/12 03:06:38;;;;;;;4.47;4.07;;;16.70;99.90;;;;;;5097192;28;20329;-59
2023/06/12 03:09:05;;;;;;;4.38;3.97;;;16.70;99.90;;;;;;5097646;28;20279;-59
2023/06/12 03:11:33;;;;;;;4.40;4.00;;;16.70;99.90;;;;;;5098079;28;20204;-59
2023/06/12 03:13:59;;;;;;;5.05;3.90;;;16.60;99.90;;;;;;5099707;28;20235;-60
2023/06/12 03:16:30;;;;;;;4.88;4.38;;;16.50;99.90;;;;;;5098023;28;20208;-59
2023/06/12 03:18:57;;;;;;;4.20;3.80;;;16.60;99.90;;;;;;5097726;28;20235;-59
2023/06/12 03:21:24;;;;;;;3.92;3.58;;;16.60;99.90;;;;;;5098044;28;20232;-60
2023/06/12 03:23:51;;;;;;;4.60;4.13;;;16.60;99.90;;;;;;5096891;28;20200;-59
2023/06/12 03:26:18;;;;;;;4.35;3.95;;;16.60;99.90;;;;;;5096974;28;20231;-59
2023/06/12 03:28:46;;;;;;;5.65;4.22;;;16.60;99.90;;;;;;5097094;28;20225;-59
2023/06/12 03:31:13;;;;;;;4.68;4.03;;;16.50;99.90;;;;;;5097164;28;20577;-59
2023/06/12 03:33:41;;;;;;;4.70;4.20;;;16.40;99.90;;;;;;5096966;28;20294;-59
2023/06/12 03:36:08;;;;;;;4.95;4.45;;;16.40;99.90;;;;;;5096306;28;20222;-59
2023/06/12 03:38:35;;;;;;;5.15;4.10;;;16.30;99.90;;;;;;5095867;28;20238;-59
2023/06/12 03:41:02;;;;;;;7.32;4.15;;;16.30;99.90;;;;;;5095725;28;20209;-59
2023/06/12 03:43:29;;;;;;;7.40;4.47;;;16.30;99.90;;;;;;5095467;28;20657;-58
2023/06/12 03:45:56;;;;;;;4.78;3.78;;;16.30;99.90;;;;;;5094997;28;20673;-59
2023/06/12 03:48:23;;;;;;;5.07;4.57;;;16.20;99.90;;;;;;5095539;28;20236;-59
2023/06/12 03:50:51;;;;;;;5.38;4.10;;;16.30;99.90;;;;;;5095523;28;20307;-59
2023/06/12 03:53:18;;;;;;;5.15;4.28;;;16.30;99.90;;;;;;5095712;28;20200;-59
2023/06/12 03:55:45;;;;;;;5.38;4.20;;;16.20;99.90;;;;;;5095225;28;20204;-59
2023/06/12 03:58:16;;;;;;;4.75;4.00;;;16.30;99.90;;;;;;5095507;28;20599;-60
2023/06/12 04:00:45;;;;;;;6.90;4.15;;;16.30;99.90;;;;;;5096449;28;20208;-60
2023/06/12 04:03:14;;;;;;;4.70;4.30;;;16.30;99.90;;;;;;5095338;28;20313;-59
2023/06/12 04:05:40;;;;;;;6.72;4.20;;;16.30;99.90;;;;;;5095910;28;20261;-60
2023/06/12 04:08:11;;;;;;;5.78;3.97;;;16.40;99.90;;;;;;5095973;28;20303;-59
2023/06/12 04:10:38;;;;;;;5.47;4.80;;;16.40;99.90;;;;;;5095956;28;20196;-60
2023/06/12 04:13:05;;;;;;;5.35;4.65;;;16.40;99.90;;;;;;5094677;28;20235;-60
2023/06/12 04:15:32;;;;;;;4.65;4.22;;;16.50;99.90;;;;;;5095345;28;20204;-60
2023/06/12 04:17:59;;;;;;;5.25;4.20;;;16.60;99.90;;;;;;5095310;28;20204;-60
2023/06/12 04:20:27;;;;;;;5.45;4.50;;;16.70;99.90;;;;;;5095409;28;20244;-60
2023/06/12 04:22:56;;;;;;;4.65;4.25;;;16.70;99.90;;;;;;5095127;28;20651;-59
2023/06/12 04:25:25;;;;;;;5.07;4.07;;;16.80;99.90;;;;;;5095142;28;20262;-59
2023/06/12 04:27:52;;;;;;;5.80;4.30;;;16.90;99.90;;;;;;5094920;28;20200;-59
2023/06/12 04:30:21;;;;;;;6.63;4.65;;;17.10;99.90;;;;;;5094768;28;20698;-60
2023/06/12 04:32:48;;;;;;;7.90;4.57;;;17.20;99.90;;;;;;5094933;28;20196;-60
2023/06/12 04:35:16;;;;;;;5.07;4.40;;;17.40;99.90;;;;;;5094418;28;20212;-62
2023/06/12 04:37:43;;;;;;;4.68;4.28;;;17.50;99.90;;;;;;5094755;28;20215;-61
2023/06/12 04:40:11;;;;;;;5.07;4.57;;;17.60;99.90;;;;;;5094218;28;20224;-61
2023/06/12 04:42:41;;;;;;;4.97;4.47;;;17.80;99.90;;;;;;5093912;28;20693;-62
2023/06/12 04:45:09;;;;;;;6.03;4.43;;;18.00;99.90;;;;;;5094184;28;20206;-61
2023/06/12 04:47:37;;;;;;;4.05;3.65;;;18.60;99.90;;;;;;5093657;28;20214;-63
2023/06/12 04:50:05;;;;;;;4.22;3.83;;;19.70;99.90;;;;;;5094030;28;20220;-61
2023/06/12 04:52:34;;;;;;;5.22;3.50;;;21.30;99.90;;;;;;5093508;28;20208;-61
2023/06/12 04:55:01;;;;;;;4.82;3.40;;;23.10;99.90;;;;;;5093538;28;20235;-62
2023/06/12 04:57:29;;;;;;;4.13;3.72;;;24.80;98.00;;;;;;5093441;28;20231;-61
2023/06/12 04:59:58;;;;;;;6.32;3.42;;;26.20;93.20;;;;;;5093599;28;20234;-62
2023/06/12 05:02:25;;;;;;;6.18;3.63;;;27.50;89.60;;;;;;5093532;28;20305;-62
2023/06/12 05:04:51;;;;;;;3.83;3.53;;;28.40;84.20;;;;;;5093141;28;20669;-61
2023/06/12 05:07:19;;;;;;;4.28;3.30;;;29.20;78.80;;;;;;5093471;28;20208;-61
2023/06/12 05:09:46;;;;;;;5.05;3.60;;;29.90;75.10;;;;;;5092844;28;20571;-61
2023/06/12 05:12:13;;;;;;;4.07;3.60;;;30.60;72.30;;;;;;5093148;28;20206;-61
2023/06/12 05:14:42;;;;;;;5.97;3.63;;;31.30;69.80;;;;;;5093130;28;20199;-60
2023/06/12 05:17:11;;;;;;;5.25;3.33;;;31.90;65.90;;;;;;5093005;28;20212;-63
2023/06/12 05:19:38;;;;;;;4.15;3.33;;;32.20;64.90;;;;;;5092818;28;20247;-61
2023/06/12 05:22:05;;;;;;;3.70;3.33;;;32.80;63.60;;;;;;5092742;28;20376;-61
2023/06/12 05:24:32;;;;;;;7.03;3.67;;;33.70;60.10;;;;;;5093145;28;20207;-61
2023/06/12 05:27:00;;;;;;;4.25;3.55;;;34.50;58.10;;;;;;5092230;28;20219;-61
2023/06/12 05:29:27;;;;;;;4.63;3.20;;;35.10;57.00;;;;;;5092552;28;20220;-61
2023/06/12 05:31:54;;;;;;;3.85;3.55;;;35.60;55.00;;;;;;5093460;28;20201;-63
2023/06/12 05:34:22;;;;;;;4.63;3.58;;;36.20;53.80;;;;;;5093849;28;20199;-61
2023/06/12 05:36:49;;;;;;;3.50;3.20;;;36.60;52.40;;;;;;5093327;28;20695;-61
2023/06/12 05:39:16;;;;;;;3.88;3.20;;;36.80;51.50;;;;;;5093696;28;20220;-62
2023/06/12 05:41:43;;;;;;;3.85;3.28;;;37.30;50.80;;;;;;5093805;28;20254;-61
2023/06/12 05:44:10;;;;;;;3.70;3.40;;;38.00;49.90;;;;;;5093099;28;20291;-61
2023/06/12 05:46:37;;;;;;;4.45;3.20;;;38.70;48.20;;;;;;5092460;28;20232;-61
2023/06/12 05:49:04;;;;;;;4.20;3.58;;;39.10;47.50;;;;;;5092498;28;20579;-61
2023/06/12 05:51:32;;;;;;;3.70;3.22;;;39.30;47.00;;;;;;5093684;28;20223;-62
2023/06/12 05:54:00;;;;;;;4.75;3.70;;;39.30;46.70;;;;;;5093497;28;20219;-62
2023/06/12 05:56:27;;;;;;;3.67;3.38;;;39.20;46.70;;;;;;5092852;28;20258;-63
2023/06/12 05:58:54;;;;;;;3.40;3.10;;;39.30;46.70;;;;;;5093122;28;20644;-61
2023/06/12 06:01:25;;;;;;;4.30;2.83;;;39.60;45.80;;;;;;5092716;28;20226;-63
2023/06/12 06:03:52;;;;;;;3.30;3.00;;;39.90;45.40;;;;;;5093252;28;20220;-62
2023/06/12 06:06:19;;;;;;;3.60;3.20;;;40.10;44.90;;;;;;5092758;28;20235;-64
2023/06/12 06:08:47;;;;;;;3.42;3.13;;;40.20;44.60;;;;;;5095005;28;20235;-63
2023/06/12 06:11:15;;;;;;;3.75;3.38;;;39.80;44.70;;;;;;5094126;28;20266;-61
2023/06/12 06:13:43;;;;;;;5.15;3.40;;;39.60;45.20;;;;;;5094017;28;20201;-61
2023/06/12 06:16:10;;;;;;;5.00;3.28;;;39.80;44.80;;;;;;5094396;28;20208;-62
2023/06/12 06:18:37;;;;;;;6.22;3.55;;;39.70;44.60;;;;;;5078882;28;20233;-68
2023/06/12 06:21:05;;;;;;;5.72;3.10;;;39.60;44.60;;;;;;5075525;28;20208;-62
2023/06/12 06:23:32;;;;;;;3.58;3.28;;;39.70;45.10;;;;;;5075212;28;20278;-63
2023/06/12 06:26:00;;;;;;;5.95;3.25;;;40.20;43.70;;;;;;5073752;28;20602;-60
2023/06/12 06:28:27;;;;;;;3.10;2.88;;;40.40;43.30;;;;;;5073690;28;20597;-62
2023/06/12 06:30:54;;;;;;;5.93;3.33;;;40.70;43.10;;;;;;5074577;28;20209;-61
2023/06/12 06:33:21;;;;;;;4.13;3.08;;;40.70;42.90;;;;;;5074304;28;20200;-61
2023/06/12 06:35:47;;;;;;;6.05;3.53;;;40.70;42.70;;;;;;5073739;28;20204;-61
2023/06/12 06:38:19;;;;;;;3.25;2.90;;;40.90;42.50;;;;;;5074653;28;20378;-60
2023/06/12 06:40:46;;;;;;;3.97;3.20;;;41.20;41.90;;;;;;5076989;28;20841;-62
2023/06/12 06:43:14;;;;;;;4.97;3.20;;;41.20;42.00;;;;;;5078421;28;20224;-62
2023/06/12 06:45:41;;;;;;;3.30;3.00;;;41.30;41.50;;;;;;5078343;28;20211;-64
2023/06/12 06:48:08;;;;;;;3.45;3.10;;;41.20;41.30;;;;;;5076412;28;20585;-59
2023/06/12 06:50:35;;;;;;;4.05;3.15;;;41.00;41.70;;;;;;5077145;28;20215;-63
2023/06/12 06:53:02;;;;;;;3.38;3.08;;;41.20;40.90;;;;;;5076862;28;20204;-61
2023/06/12 06:55:29;;;;;;;4.90;3.28;;;40.80;41.60;;;;;;5076488;28;20570;-59
2023/06/12 06:57:56;;;;;;;4.85;3.38;;;40.60;42.10;;;;;;5075550;28;20212;-59
2023/06/12 07:00:24;;;;;;;4.18;3.30;;;40.80;41.50;;;;;;5076699;28;20411;-66
2023/06/12 07:02:51;;;;;;;4.85;3.20;;;41.00;41.40;;;;;;5077658;28;20231;-65
2023/06/12 07:05:20;;;;;;;5.90;3.13;;;41.50;40.80;;;;;;5076845;28;20580;-62
2023/06/12 07:07:48;;;;;;;5.30;3.17;;;42.30;40.00;;;;;;5076076;28;20208;-59
2023/06/12 07:10:15;;;;;;;3.25;2.95;;;41.80;40.40;;;;;;5076217;28;20228;-59
2023/06/12 07:12:42;;;;;;;4.75;3.35;;;40.90;41.20;;;;;;5075597;28;20208;-59
2023/06/12 07:15:09;;;;;;;6.13;3.30;;;40.00;41.90;;;;;;5075609;28;20231;-59
2023/06/12 07:17:37;;;;;;;5.20;3.45;;;40.40;42.00;;;;;;5075467;28;20701;-59
2023/06/12 07:20:06;;;;;;;5.22;3.42;;;41.20;40.90;;;;;;5070409;22;20233;-55
2023/06/12 07:22:33;;;;;;;4.40;3.08;;;42.20;39.90;;;;;;5054082;28;20316;-54
2023/06/12 07:25:00;;;;;;;5.03;3.38;;;43.00;39.20;;;;;;5054542;28;20354;-54
2023/06/12 07:27:27;;;;;;;6.30;3.35;;;43.20;38.90;;;;;;5054215;28;20295;-58
2023/06/12 07:29:55;;;;;;;6.82;3.22;;;43.20;38.80;;;;;;5042065;28;20226;-56
2023/06/12 07:32:21;;;;;;;3.45;2.97;;;43.40;38.60;;;;;;5034108;28;20666;-57
2023/06/12 07:34:50;;;;;;;3.75;3.20;;;43.50;38.20;;;;;;5034189;28;20288;-60
2023/06/12 07:37:20;;;;;;;4.28;3.08;;;43.50;37.90;;;;;;5033628;28;20252;-55
2023/06/12 07:39:47;;;;;;;5.55;3.00;;;43.30;37.60;;;;;;5034187;28;20280;-56
2023/06/12 07:42:14;;;;;;;5.22;3.03;;;42.50;38.20;;;;;;5033926;28;20508;-59
2023/06/12 07:44:42;;;;;;;3.75;3.00;;;41.90;38.80;;;;;;5034026;28;20212;-57
2023/06/12 07:47:08;;;;;;;4.75;3.10;;;42.30;37.80;;;;;;5033711;28;20210;-59
2023/06/12 07:49:36;;;;;;;5.18;3.13;;;42.40;38.00;;;;;;5033092;28;20737;-58
2023/06/12 07:52:04;;;;;;;4.70;2.90;;;42.40;37.90;;;;;;5033561;28;20221;-59
2023/06/12 07:54:31;;;;;;;7.03;3.00;;;42.10;38.00;;;;;;5034148;28;20206;-58
2023/06/12 07:56:58;;;;;;;3.65;3.00;;;42.10;38.30;;;;;;5033028;28;20448;-60
2023/06/12 07:59:25;;;;;;;4.05;2.55;;;42.40;38.10;;;;;;5033790;28;20604;-58
2023/06/12 08:01:51;;;;;;;3.22;2.70;;;42.60;38.00;;;;;;5033466;28;20245;-58
2023/06/12 08:04:18;;;;;;;4.35;3.00;;;43.00;37.50;;;;;;5033575;28;20217;-58
2023/06/12 08:06:47;;;;;;;3.42;2.72;;;43.30;37.00;;;;;;5033840;28;20210;-58
2023/06/12 08:09:15;;;;;;;5.88;2.50;;;43.50;36.60;;;;;;5033871;28;20233;-59
2023/06/12 08:11:42;;;;;;;3.20;2.90;;;43.00;36.70;;;;;;5033872;28;20206;-58
2023/06/12 08:14:09;;;;;;;3.85;3.10;;;42.40;36.80;;;;;;5033862;28;20236;-56
2023/06/12 08:16:36;;;;;;;3.10;2.80;;;41.80;37.50;;;;;;5033261;28;20249;-58
2023/06/12 08:19:03;;;;;;;3.83;3.03;;;41.30;37.70;;;;;;5033579;28;20294;-57
2023/06/12 08:21:30;;;;;;;3.55;3.25;;;41.10;36.80;;;;;;5033297;28;20245;-58
2023/06/12 08:23:57;;;;;;;3.40;3.10;;;41.20;36.90;;;;;;5033242;28;20684;-58
2023/06/12 08:26:25;;;;;;;5.07;2.97;;;41.30;36.50;;;;;;5033097;28;20213;-58
2023/06/12 08:28:52;;;;;;;3.40;3.10;;;41.40;36.20;;;;;;5033535;28;20253;-58
2023/06/12 08:31:21;;;;;;;3.35;3.00;;;40.50;37.30;;;;;;5033054;28;20576;-58
2023/06/12 08:33:47;;;;;;;5.18;3.00;;;39.40;38.90;;;;;;5033320;28;20230;-57
2023/06/12 08:36:14;;;;;;;4.05;3.30;;;38.30;39.10;;;;;;5033031;28;20210;-58
2023/06/12 08:38:41;;;;;;;4.95;3.50;;;37.30;40.80;;;;;;5033243;28;20238;-59
2023/06/12 08:41:08;;;;;;;4.53;3.22;;;36.80;40.70;;;;;;5033152;28;20660;-58
2023/06/12 08:43:36;;;;;;;9.88;4.35;;;36.90;40.10;;;;;;5032967;28;20218;-58
2023/06/12 08:46:04;;;;;;;5.95;3.15;;;37.00;40.00;;;;;;5032672;28;20668;-58
2023/06/12 08:48:33;;;;;;;4.90;3.50;;;36.40;39.80;;;;;;5032893;28;20660;-58
2023/06/12 08:51:00;;;;;;;3.92;3.25;;;35.90;40.80;;;;;;5032877;28;20215;-58
2023/06/12 08:53:28;;;;;;;5.88;3.45;;;35.10;42.00;;;;;;5032730;28;20202;-58
2023/06/12 08:55:56;;;;;;;5.63;3.67;;;33.70;44.00;;;;;;5032383;28;20212;-57
2023/06/12 08:58:23;;;;;;;4.93;3.33;;;32.30;45.30;;;;;;5032872;28;20238;-58
2023/06/12 09:00:51;;;;;;;4.45;3.53;;;30.90;47.20;;;;;;5032773;28;20245;-58
2023/06/12 09:03:19;;;;;;;5.43;3.42;;;29.90;48.20;;;;;;5031633;28;20226;-57
2023/06/12 09:05:47;;;;;;;5.63;3.38;;;29.00;50.00;;;;;;5032473;28;20217;-56
2023/06/12 09:08:14;;;;;;;4.82;3.78;;;28.10;52.20;;;;;;5032642;28;20680;-58
2023/06/12 09:10:41;;;;;;;4.97;3.63;;;27.60;53.00;;;;;;5032193;28;20228;-60
2023/06/12 09:13:09;;;;;;;5.88;3.78;;;27.10;53.00;;;;;;5032310;28;20530;-59
2023/06/12 09:15:37;;;;;;;5.88;3.65;;;26.80;53.10;;;;;;5028628;28;20213;-63
2023/06/12 09:18:10;;;;;;;8.00;3.58;;;26.80;53.10;;;;;;5032366;28;20214;-61
2023/06/12 09:20:38;;;;;;;4.20;3.70;;;26.80;53.10;;;;;;5032186;28;20238;-62
2023/06/12 09:23:05;;;;;;;5.15;3.85;;;26.70;54.00;;;;;;5032223;28;20276;-64
2023/06/12 09:25:35;;;;;;;4.25;3.85;;;26.60;54.40;;;;;;5031995;28;20202;-61
2023/06/12 09:28:03;;;;;;;10.25;3.60;;;26.60;54.60;;;;;;5032106;28;20233;-60
2023/06/12 09:30:31;;;;;;;4.28;3.65;;;26.60;54.60;;;;;;5032122;28;20226;-61
2023/06/12 09:32:59;;;;;;;6.38;3.72;;;26.50;55.30;;;;;;5032056;28;20214;-60
2023/06/12 09:35:28;;;;;;;3.70;3.38;;;26.60;54.40;;;;;;5032374;28;20202;-60
2023/06/12 09:37:56;;;;;;;4.50;3.75;;;26.60;54.10;;;;;;5031941;28;20643;-61
2023/06/12 09:40:23;;;;;;;5.22;3.90;;;26.70;54.50;;;;;;5031857;28;20221;-59
2023/06/12 09:42:50;;;;;;;4.55;3.42;;;26.60;54.10;;;;;;5031977;28;20588;-60
2023/06/12 09:45:20;;;;;;;6.30;3.90;;;26.40;54.90;;;;;;5031817;28;20214;-59
2023/06/12 09:47:48;;;;;;;3.75;3.35;;;26.40;54.10;;;;;;5031109;28;20615;-60
2023/06/12 09:50:16;;;;;;;5.32;3.38;;;26.40;53.70;;;;;;4992297;28;20234;-60
2023/06/12 09:52:45;;;;;;;6.18;3.55;;;26.50;54.40;;;;;;4992387;28;20302;-60
2023/06/12 09:55:14;;;;;;;4.80;3.33;;;26.50;53.90;;;;;;4992456;28;20592;-60
2023/06/12 09:57:46;;;;;;;4.15;3.15;;;26.50;54.20;;;;;;4996210;28;20215;-61
2023/06/12 10:00:16;;;;;;;5.85;3.70;;;26.50;53.30;;;;;;5011752;28;20230;-61
2023/06/12 10:02:51;;;;;;;5.38;3.47;;;26.60;53.80;;;;;;5012165;28;20203;-60
2023/06/12 10:05:23;;;;;;;4.22;3.65;;;26.70;53.70;;;;;;5011956;28;20202;-60
2023/06/12 10:07:54;;;;;;;4.20;3.78;;;26.90;53.10;;;;;;5012053;28;20210;-60
2023/06/12 10:10:22;;;;;;;4.97;3.38;;;27.20;54.00;;;;;;5011759;28;20252;-63
2023/06/12 10:12:51;;;;;;;4.50;3.70;;;27.20;53.70;;;;;;5012023;28;20215;-59
2023/06/12 10:15:18;;;;;;;4.80;3.47;;;27.20;53.70;;;;;;5015310;28;20233;-62
2023/06/12 10:17:45;;;;;;;9.13;3.40;;;27.30;52.80;;;;;;5016069;28;20215;-59
2023/06/12 10:20:13;;;;;;;3.70;3.33;;;27.20;52.90;;;;;;5015264;28;20746;-60
2023/06/12 10:22:40;;;;;;;5.05;3.30;;;27.30;52.40;;;;;;5015854;28;20209;-60
2023/06/12 10:25:10;;;;;;;4.55;3.60;;;27.40;52.60;;;;;;5015599;28;20253;-60
2023/06/12 10:27:39;;;;;;;5.18;3.78;;;27.60;51.90;;;;;;5015119;28;20211;-60
2023/06/12 10:30:11;;;;;;;3.92;3.38;;;27.70;51.70;;;;;;5015368;28;20242;-60
2023/06/12 10:32:39;;;;;;;5.75;3.58;;;27.70;52.60;;;;;;5015763;28;20207;-62
2023/06/12 10:35:07;;;;;;;4.95;3.35;;;27.70;53.60;;;;;;5015707;28;20206;-62
2023/06/12 10:37:37;;;;;;;4.35;3.40;;;27.60;53.30;;;;;;5015343;28;20215;-62
2023/06/12 10:40:15;;;;;;;5.43;3.63;;;27.50;53.50;;;;;;5014856;28;20269;-61
2023/06/12 10:42:47;;;;;;;5.43;3.55;;;27.40;53.50;;;;;;5015296;28;20210;-61
2023/06/12 10:45:20;;;;;;;5.90;3.53;;;27.30;53.40;;;;;;5015260;28;20230;-61
2023/06/12 10:48:13;;;;;;;4.53;3.53;;;27.40;53.40;;;;;;5015073;28;20665;-61
2023/06/12 10:50:43;;;;;;;4.22;3.38;;;27.60;53.50;;;;;;5015087;28;20233;-61
2023/06/12 10:53:12;;;;;;;6.60;3.70;;;27.60;52.80;;;;;;5014937;28;20211;-61
2023/06/12 10:55:41;;;;;;;5.38;3.60;;;27.60;52.30;;;;;;5014950;28;20210;-60
2023/06/12 10:58:11;;;;;;;5.20;3.40;;;27.60;52.10;;;;;;5015039;28;20213;-59
2023/06/12 11:00:43;;;;;;;4.65;3.47;;;27.70;51.80;;;;;;5014987;28;20227;-59
2023/06/12 11:03:11;;;;;;;4.15;3.83;;;27.60;51.00;;;;;;5014998;28;20213;-59
2023/06/12 11:05:39;;;;;;;5.07;3.15;;;27.50;51.20;;;;;;5014854;28;20235;-59
2023/06/12 11:08:08;;;;;;;4.30;3.30;;;27.50;51.90;;;;;;5014963;28;20207;-59
2023/06/12 11:10:36;;;;;;;5.53;3.20;;;27.60;51.10;;;;;;5014872;28;20234;-60
2023/06/12 11:13:04;;;;;;;4.60;3.38;;;27.70;50.80;;;;;;5014891;28;20213;-61
2023/06/12 11:15:33;;;;;;;4.10;3.40;;;27.70;51.30;;;;;;5014640;28;20199;-60
2023/06/12 11:18:00;;;;;;;5.13;3.30;;;27.70;51.40;;;;;;5013789;28;20691;-60
2023/06/12 11:20:27;;;;;;;6.03;3.33;;;27.60;51.10;;;;;;5014437;28;20242;-62
2023/06/12 11:23:03;;;;;;;4.85;3.15;;;27.70;50.80;;;;;;5014891;28;20310;-61
2023/06/12 11:25:35;;;;;;;3.50;3.20;;;27.70;49.80;;;;;;5013622;28;20248;-60
2023/06/12 11:28:06;;;;;;;9.70;3.50;;;27.70;49.50;;;;;;5014496;28;20213;-60
2023/06/12 11:30:33;;;;;;;3.63;3.08;;;27.60;49.90;;;;;;5014095;28;20268;-63
2023/06/12 11:33:06;;;;;;;5.63;3.22;;;27.70;49.70;;;;;;5014959;28;20207;-62
2023/06/12 11:35:33;;;;;;;4.80;3.13;;;27.80;49.30;;;;;;5014536;28;20207;-60
2023/06/12 11:38:01;;;;;;;7.45;3.22;;;27.80;49.10;;;;;;5014268;28;20204;-58
2023/06/12 11:40:28;;;;;;;5.10;3.22;;;27.90;48.50;;;;;;5014092;28;20234;-61
2023/06/12 11:42:55;;;;;;;4.68;3.33;;;27.90;48.50;;;;;;5014196;28;20587;-60
2023/06/12 11:45:23;;;;;;;3.58;3.28;;;28.00;49.50;;;;;;5014376;28;20226;-61
2023/06/12 11:47:50;;;;;;;7.35;3.25;;;28.00;49.50;;;;;;5014130;28;20582;-61
2023/06/12 11:50:19;;;;;;;4.18;3.40;;;28.10;49.30;;;;;;5014150;28;20316;-59
2023/06/12 11:52:47;;;;;;;4.47;3.30;;;28.10;48.60;;;;;;5014030;28;20215;-60
2023/06/12 11:55:16;;;;;;;4.38;3.50;;;28.10;48.60;;;;;;5014129;28;20203;-61
2023/06/12 11:57:47;;;;;;;5.65;3.60;;;28.20;48.70;;;;;;5013797;28;20639;-61
2023/06/12 12:00:17;;;;;;;5.10;3.22;;;28.10;48.60;;;;;;5014183;28;20708;-63
2023/06/12 12:02:49;;;;;;;3.67;3.20;;;28.20;48.70;;;;;;5014556;28;20207;-58
2023/06/12 12:05:19;;;;;;;4.75;3.30;;;28.30;47.90;;;;;;5013912;28;20668;-58
2023/06/12 12:07:48;;;;;;;4.88;3.10;;;28.30;48.80;;;;;;5013943;28;20242;-58
2023/06/12 12:10:15;;;;;;;7.32;3.20;;;28.30;46.90;;;;;;5013919;28;20234;-59
2023/06/12 12:12:44;;;;;;;3.75;3.20;;;28.40;47.60;;;;;;5013735;28;20677;-58
2023/06/12 12:15:12;;;;;;;3.65;2.92;;;28.30;47.30;;;;;;5013948;28;20702;-58
2023/06/12 12:17:40;;;;;;;3.55;3.20;;;28.40;47.90;;;;;;5013573;28;20487;-58
2023/06/12 12:20:13;;;;;;;4.68;3.90;;;28.50;48.30;;;;;;5013543;28;20246;-58
2023/06/12 12:22:41;;;;;;;4.10;3.28;;;28.60;48.50;;;;;;5013550;28;20211;-58
2023/06/12 12:25:10;;;;;;;5.38;3.45;;;28.70;47.90;;;;;;5013640;28;20249;-58
2023/06/12 12:27:38;;;;;;;3.83;3.40;;;28.80;48.00;;;;;;5013382;28;20206;-58
2023/06/12 12:30:05;;;;;;;6.63;3.50;;;28.80;47.70;;;;;;5013615;28;20238;-58
2023/06/12 12:32:33;;;;;;;4.68;3.40;;;28.90;47.50;;;;;;5013411;28;20210;-57
2023/06/12 12:34:59;;;;;;;4.53;3.22;;;29.10;47.40;;;;;;5013584;28;20578;-58
2023/06/12 12:37:28;;;;;;;5.53;3.22;;;29.20;47.30;;;;;;5013364;28;20203;-58
2023/06/12 12:39:55;;;;;;;5.68;3.45;;;29.20;47.10;;;;;;5013515;28;20249;-57
2023/06/12 12:42:22;;;;;;;4.43;3.53;;;29.30;46.70;;;;;;5013300;28;20214;-58
2023/06/12 12:44:48;;;;;;;3.90;3.50;;;29.10;47.30;;;;;;5013150;28;20290;-58
2023/06/12 12:47:15;;;;;;;3.63;3.28;;;29.10;47.50;;;;;;5013121;28;20211;-58
2023/06/12 12:49:42;;;;;;;3.25;2.95;;;29.20;47.10;;;;;;5012945;28;20230;-59
2023/06/12 12:52:09;;;;;;;4.35;3.50;;;29.10;46.00;;;;;;5013454;28;20680;-57
2023/06/12 12:54:37;;;;;;;4.15;3.33;;;29.00;46.40;;;;;;5013036;28;20221;-58